Time;durP1;ratioP1;P1;durP2;ratioP2;P2;SDS_P1;SDS_P2;PMS_P1;PMS_P2;Temp;Humidity;BMP_temperature;BMP_pressure;BME280_temperature;BME280_humidity;BME280_pressure;Samples;Min_cycle;Max_cycle;Signal;HPM_P1;HPM_P2
2023/03/27 00:01:24;;;;;;;0.60;0.60;;;3.00;99.90;;;;;;4969304;28;20130;-84
2023/03/27 00:03:52;;;;;;;0.70;0.70;;;3.70;99.90;;;;;;4943380;28;20042;-85
2023/03/27 00:06:20;;;;;;;0.70;0.70;;;2.60;99.90;;;;;;4947113;28;20046;-84
2023/03/27 00:08:49;;;;;;;0.93;0.93;;;2.60;99.90;;;;;;4961006;28;20049;-83
2023/03/27 00:11:16;;;;;;;0.70;0.70;;;3.80;99.90;;;;;;4943126;28;20043;-82
2023/03/27 00:13:43;;;;;;;0.60;0.60;;;2.40;99.90;;;;;;4961432;28;20035;-83
2023/03/27 00:16:10;;;;;;;0.70;0.70;;;2.40;99.90;;;;;;4962334;28;20068;-83
2023/03/27 00:18:36;;;;;;;0.80;0.80;;;2.30;99.90;;;;;;4948120;28;20046;-84
2023/03/27 00:21:03;;;;;;;0.75;0.75;;;2.30;99.90;;;;;;4951453;28;20042;-85
2023/03/27 00:23:30;;;;;;;0.60;0.60;;;2.20;99.90;;;;;;4967492;28;20047;-85
2023/03/27 00:25:57;;;;;;;0.65;0.65;;;2.10;99.90;;;;;;4958645;28;20055;-84
2023/03/27 00:28:28;;;;;;;0.80;0.80;;;2.20;99.90;;;;;;4950869;28;20045;-84
2023/03/27 00:30:54;;;;;;;0.65;0.65;;;3.10;99.90;;;;;;4966440;28;20050;-83
2023/03/27 00:33:21;;;;;;;0.70;0.70;;;2.10;99.90;;;;;;4937990;28;20570;-84
2023/03/27 00:35:48;;;;;;;0.70;0.70;;;2.10;99.90;;;;;;4961530;28;20074;-84
2023/03/27 00:38:15;;;;;;;0.70;0.70;;;2.20;99.90;;;;;;4968362;28;20039;-83
2023/03/27 00:40:42;;;;;;;0.70;0.70;;;2.20;99.90;;;;;;4966064;28;20129;-84
2023/03/27 00:43:32;;;;;;;0.70;0.70;;;3.40;99.90;;;;;;4968381;28;20081;-83
2023/03/27 00:46:20;;;;;;;0.73;0.73;;;2.20;99.90;;;;;;4964893;28;20050;-86
2023/03/27 00:48:48;;;;;;;0.60;0.60;;;2.30;99.90;;;;;;4958806;28;20043;-84
2023/03/27 00:51:15;;;;;;;0.70;0.70;;;2.30;99.90;;;;;;4966311;28;20108;-84
2023/03/27 00:53:42;;;;;;;0.70;0.70;;;2.30;99.90;;;;;;4946961;28;20732;-84
2023/03/27 00:56:12;;;;;;;0.60;0.60;;;3.70;99.90;;;;;;4963818;28;20062;-83
2023/03/27 00:59:01;;;;;;;0.70;0.70;;;2.40;99.90;;;;;;4949744;28;20047;-82
2023/03/27 01:01:29;;;;;;;0.70;0.70;;;2.30;99.90;;;;;;4964725;28;20058;-85
2023/03/27 01:03:59;;;;;;;0.60;0.60;;;2.30;99.90;;;;;;4946504;28;20420;-85
2023/03/27 01:06:26;;;;;;;0.70;0.70;;;2.70;99.90;;;;;;4948261;28;20384;-83
2023/03/27 01:08:52;;;;;;;0.60;0.60;;;3.50;99.90;;;;;;4950477;28;20051;-84
2023/03/27 01:11:36;;;;;;;0.60;0.60;;;2.30;99.90;;;;;;4942032;28;20404;-84
2023/03/27 01:14:25;;;;;;;0.60;0.60;;;2.10;99.90;;;;;;4962059;28;20130;-84
2023/03/27 01:17:00;;;;;;;0.70;0.70;;;2.10;99.90;;;;;;4967030;28;20477;-84
2023/03/27 01:20:03;;;;;;;0.70;0.70;;;2.10;99.90;;;;;;4952750;28;20041;-82
2023/03/27 01:23:07;;;;;;;0.73;0.73;;;2.10;99.90;;;;;;4971919;28;21002;-84
2023/03/27 01:25:48;;;;;;;0.80;0.80;;;2.10;99.90;;;;;;4947686;28;20063;-84
2023/03/27 01:29:02;;;;;;;0.60;0.60;;;2.20;99.90;;;;;;4961867;28;20058;-85
2023/03/27 01:32:07;;;;;;;0.60;0.60;;;2.10;99.90;;;;;;4951044;28;20058;-83
2023/03/27 01:34:47;;;;;;;0.60;0.60;;;2.10;99.90;;;;;;4963357;28;20119;-83
2023/03/27 01:37:38;;;;;;;0.70;0.70;;;2.00;99.90;;;;;;4964582;28;20047;-85
2023/03/27 01:40:20;;;;;;;0.73;0.73;;;1.90;99.90;;;;;;4944084;28;20039;-84
2023/03/27 01:43:07;;;;;;;0.70;0.70;;;1.90;99.90;;;;;;4963065;28;20042;-84
2023/03/27 01:45:54;;;;;;;0.77;0.77;;;1.90;99.90;;;;;;4963578;28;20388;-83
2023/03/27 01:48:32;;;;;;;;;;;1.90;99.90;;;;;;4950814;28;20035;-83
2023/03/27 01:51:02;;;;;;;;;;;1.80;99.90;;;;;;4961975;28;20047;-85
2023/03/27 01:53:57;;;;;;;0.68;0.68;;;1.80;99.90;;;;;;4964939;28;20058;-84
2023/03/27 01:56:31;;;;;;;0.70;0.70;;;1.90;99.90;;;;;;4949002;28;20080;-85
2023/03/27 01:59:12;;;;;;;0.80;0.80;;;1.80;99.90;;;;;;4949622;28;20158;-85
2023/03/27 02:01:41;;;;;;;0.60;0.60;;;1.80;99.90;;;;;;4965326;28;20488;-86
2023/03/27 02:04:20;;;;;;;0.70;0.70;;;1.80;99.90;;;;;;4960308;28;20039;-86
2023/03/27 02:07:10;;;;;;;0.80;0.80;;;1.90;99.90;;;;;;4965362;28;20038;-85
2023/03/27 02:09:43;;;;;;;0.60;0.60;;;3.30;99.90;;;;;;4943387;28;20050;-85
2023/03/27 02:12:15;;;;;;;0.68;0.68;;;2.20;99.90;;;;;;4962714;28;20043;-85
2023/03/27 02:15:03;;;;;;;0.70;0.70;;;2.30;99.90;;;;;;4964277;28;20042;-85
2023/03/27 02:17:32;;;;;;;0.57;0.57;;;2.30;99.90;;;;;;4964684;28;20154;-85
2023/03/27 02:20:10;;;;;;;0.77;0.77;;;2.40;99.90;;;;;;4951454;28;20057;-84
2023/03/27 02:22:38;;;;;;;0.70;0.70;;;2.70;99.90;;;;;;4963792;28;20051;-85
2023/03/27 02:25:26;;;;;;;0.80;0.80;;;3.10;99.90;;;;;;4933792;28;20130;-84
2023/03/27 02:28:02;;;;;;;0.60;0.60;;;2.90;99.90;;;;;;4922949;28;20051;-85
2023/03/27 02:30:46;;;;;;;0.80;0.80;;;2.50;99.90;;;;;;4911832;28;20480;-84
2023/03/27 02:33:36;;;;;;;0.70;0.70;;;2.50;99.90;;;;;;4927860;28;20043;-84
2023/03/27 02:36:36;;;;;;;0.63;0.63;;;2.50;99.90;;;;;;4912079;28;20131;-85
2023/03/27 02:39:14;;;;;;;0.80;0.80;;;2.40;99.90;;;;;;4906787;29;20067;-84
2023/03/27 02:41:50;;;;;;;0.70;0.70;;;2.50;99.90;;;;;;4925405;29;20130;-85
2023/03/27 02:44:50;;;;;;;0.63;0.63;;;2.40;99.90;;;;;;4924451;28;20054;-85
2023/03/27 02:47:34;;;;;;;0.60;0.60;;;2.40;99.90;;;;;;4919522;28;20417;-85
2023/03/27 02:50:22;;;;;;;1.23;0.98;;;2.40;99.90;;;;;;4925515;29;20067;-84
2023/03/27 02:52:52;;;;;;;0.70;0.70;;;2.30;99.90;;;;;;4924975;29;20044;-85
2023/03/27 02:55:23;;;;;;;0.70;0.70;;;2.40;99.90;;;;;;4924131;29;20110;-84
2023/03/27 02:57:58;;;;;;;0.80;0.80;;;2.20;99.90;;;;;;4909368;29;20054;-85
2023/03/27 03:00:28;;;;;;;0.60;0.60;;;3.00;99.90;;;;;;4896305;29;20046;-85
2023/03/27 03:03:07;;;;;;;0.75;0.75;;;2.90;99.90;;;;;;4909767;29;20046;-83
2023/03/27 03:05:36;;;;;;;0.65;0.65;;;2.00;99.90;;;;;;4922668;28;20082;-84
2023/03/27 03:08:02;;;;;;;0.68;0.68;;;2.00;99.90;;;;;;4924401;29;20043;-85
2023/03/27 03:10:28;;;;;;;0.70;0.70;;;2.70;99.90;;;;;;4926279;29;20063;-85
2023/03/27 03:12:54;;;;;;;0.80;0.80;;;2.40;99.90;;;;;;4922677;29;20036;-85
2023/03/27 03:15:20;;;;;;;0.60;0.60;;;1.80;99.90;;;;;;4923246;28;20098;-83
2023/03/27 03:17:46;;;;;;;0.80;0.80;;;1.70;99.90;;;;;;4909326;28;20485;-83
2023/03/27 03:20:12;;;;;;;0.80;0.80;;;1.70;99.90;;;;;;4924111;29;20051;-84
2023/03/27 03:22:38;;;;;;;0.70;0.70;;;2.10;99.90;;;;;;4910113;28;20063;-85
2023/03/27 03:25:09;;;;;;;0.80;0.80;;;1.80;99.90;;;;;;4906433;29;20035;-84
2023/03/27 03:27:36;;;;;;;1.00;1.00;;;1.80;99.90;;;;;;4927927;28;20731;-86
2023/03/27 03:30:03;;;;;;;0.60;0.60;;;1.90;99.90;;;;;;4945411;28;20438;-85
2023/03/27 03:32:29;;;;;;;0.80;0.80;;;1.80;99.90;;;;;;4964759;28;20079;-85
2023/03/27 03:34:55;;;;;;;;;;;1.80;99.90;;;;;;4964044;28;20084;-84
2023/03/27 03:37:27;;;;;;;0.80;0.80;;;2.80;99.90;;;;;;4949163;28;19921;-83
2023/03/27 03:39:54;;;;;;;0.90;0.90;;;1.90;99.90;;;;;;4961306;28;20431;-85
2023/03/27 03:42:20;;;;;;;0.63;0.63;;;1.90;99.90;;;;;;4946962;28;20047;-85
2023/03/27 03:44:46;;;;;;;0.77;0.77;;;1.80;99.90;;;;;;4983014;28;20040;-84
2023/03/27 03:47:12;;;;;;;0.65;0.65;;;2.90;99.90;;;;;;4963848;28;20046;-85
2023/03/27 03:49:38;;;;;;;;;;;1.80;99.90;;;;;;4963740;28;21489;-85
2023/03/27 03:52:04;;;;;;;0.80;0.80;;;1.80;99.90;;;;;;4959579;28;20367;-87
2023/03/27 03:54:30;;;;;;;0.70;0.70;;;1.80;99.90;;;;;;4933458;28;20050;-84
2023/03/27 03:56:55;;;;;;;0.70;0.70;;;1.80;99.90;;;;;;4967331;28;20042;-83
2023/03/27 03:59:21;;;;;;;0.70;0.70;;;1.80;99.90;;;;;;4937641;28;20140;-84
2023/03/27 04:01:47;;;;;;;0.63;0.63;;;1.80;99.90;;;;;;5016553;28;20052;-85
2023/03/27 04:04:12;;;;;;;0.70;0.70;;;1.80;99.90;;;;;;4965926;28;20053;-83
2023/03/27 04:06:39;;;;;;;0.65;0.65;;;3.20;99.90;;;;;;4946660;28;20047;-84
2023/03/27 04:09:05;;;;;;;0.70;0.70;;;1.70;99.90;;;;;;4931035;28;20070;-85
2023/03/27 04:11:32;;;;;;;0.80;0.80;;;1.50;99.90;;;;;;4967735;28;20483;-84
2023/03/27 04:13:57;;;;;;;0.80;0.80;;;2.20;99.90;;;;;;4951615;28;20038;-84
2023/03/27 04:16:23;;;;;;;0.65;0.65;;;1.70;99.90;;;;;;5036176;28;20046;-83
2023/03/27 04:18:53;;;;;;;0.65;0.65;;;1.40;99.90;;;;;;4950328;28;20507;-83
2023/03/27 04:21:19;;;;;;;0.80;0.80;;;1.40;99.90;;;;;;4948259;28;20049;-84
2023/03/27 04:23:50;;;;;;;0.70;0.70;;;1.50;99.90;;;;;;4953332;28;20068;-83
2023/03/27 04:26:15;;;;;;;0.80;0.80;;;1.50;99.90;;;;;;4947518;28;20142;-83
2023/03/27 04:28:41;;;;;;;0.65;0.65;;;1.60;99.90;;;;;;4972829;28;20470;-83
2023/03/27 04:31:09;;;;;;;0.80;0.80;;;1.70;99.90;;;;;;4963801;28;20056;-84
2023/03/27 04:33:45;;;;;;;0.80;0.80;;;1.80;99.90;;;;;;4965750;28;20050;-84
2023/03/27 04:36:15;;;;;;;0.70;0.70;;;1.90;99.90;;;;;;4956159;28;20038;-84
2023/03/27 04:38:40;;;;;;;0.70;0.70;;;2.10;99.90;;;;;;4965790;28;20078;-85
2023/03/27 04:41:06;;;;;;;0.70;0.70;;;2.20;99.90;;;;;;4951646;28;20085;-85
2023/03/27 04:43:35;;;;;;;0.63;0.63;;;2.30;99.90;;;;;;4962707;28;20043;-84
2023/03/27 04:46:02;;;;;;;0.60;0.60;;;2.40;99.90;;;;;;4935877;28;20050;-84
2023/03/27 04:48:28;;;;;;;0.70;0.70;;;2.50;99.90;;;;;;5031895;28;20035;-84
2023/03/27 04:50:54;;;;;;;0.70;0.70;;;2.50;99.90;;;;;;4969898;28;20799;-85
2023/03/27 04:53:20;;;;;;;0.73;0.73;;;2.60;99.90;;;;;;4968974;28;20039;-86
2023/03/27 04:55:49;;;;;;;0.60;0.60;;;2.60;99.90;;;;;;4968606;28;20043;-84
2023/03/27 04:58:16;;;;;;;0.80;0.80;;;2.70;99.90;;;;;;4953353;28;20119;-84
2023/03/27 05:00:49;;;;;;;0.70;0.70;;;3.30;99.90;;;;;;4961201;28;20476;-84
2023/03/27 05:03:17;;;;;;;0.70;0.70;;;2.50;99.90;;;;;;4964919;28;20039;-84
2023/03/27 05:05:45;;;;;;;0.70;0.70;;;2.40;99.90;;;;;;4936131;28;20039;-83
2023/03/27 05:08:11;;;;;;;0.60;0.60;;;2.30;99.90;;;;;;4967838;28;20431;-84
2023/03/27 05:10:37;;;;;;;0.80;0.80;;;2.40;99.90;;;;;;4952261;28;20055;-85
2023/03/27 05:13:03;;;;;;;0.65;0.65;;;2.20;99.90;;;;;;4958452;28;20047;-83
2023/03/27 05:15:31;;;;;;;0.80;0.80;;;3.40;99.90;;;;;;4965401;28;20042;-85
2023/03/27 05:17:57;;;;;;;0.73;0.73;;;2.20;99.90;;;;;;4962823;28;20047;-84
2023/03/27 05:20:23;;;;;;;0.70;0.70;;;2.10;99.90;;;;;;4967021;28;20534;-84
2023/03/27 05:22:53;;;;;;;0.80;0.80;;;2.10;99.90;;;;;;4963902;28;20100;-84
2023/03/27 05:25:18;;;;;;;0.70;0.70;;;2.00;99.90;;;;;;4966178;28;20100;-82
2023/03/27 05:27:48;;;;;;;0.70;0.70;;;3.30;99.90;;;;;;4949519;28;20058;-83
2023/03/27 05:30:16;;;;;;;0.80;0.80;;;2.00;99.90;;;;;;4966204;28;20238;-85
2023/03/27 05:32:50;;;;;;;6.40;1.00;;;1.80;99.90;;;;;;4961877;28;20054;-83
2023/03/27 05:35:18;;;;;;;0.77;0.77;;;1.80;99.90;;;;;;4950176;28;20043;-83
2023/03/27 05:37:46;;;;;;;0.80;0.80;;;1.70;99.90;;;;;;4948434;28;20047;-84
2023/03/27 05:40:19;;;;;;;0.60;0.60;;;1.70;99.90;;;;;;4951366;28;20046;-83
2023/03/27 05:42:46;;;;;;;0.65;0.65;;;1.70;99.90;;;;;;4945047;28;20465;-85
2023/03/27 05:45:13;;;;;;;0.60;0.60;;;1.70;99.90;;;;;;4947770;28;20129;-86
2023/03/27 05:47:50;;;;;;;0.60;0.60;;;1.70;99.90;;;;;;4943991;28;20050;-85
2023/03/27 05:50:18;;;;;;;0.50;0.50;;;1.60;99.90;;;;;;4945669;28;20042;-85
2023/03/27 05:52:44;;;;;;;0.70;0.70;;;1.60;99.90;;;;;;4950642;28;20104;-84
2023/03/27 05:55:11;;;;;;;0.60;0.60;;;1.60;99.90;;;;;;4959689;28;20042;-83
2023/03/27 05:57:40;;;;;;;0.65;0.65;;;1.50;99.90;;;;;;4972141;28;20061;-85
2023/03/27 06:00:10;;;;;;;0.80;0.80;;;1.50;99.90;;;;;;4967005;28;20035;-84
2023/03/27 06:02:37;;;;;;;0.70;0.70;;;1.50;99.90;;;;;;4963940;28;20043;-84
2023/03/27 06:05:04;;;;;;;0.70;0.70;;;1.50;99.90;;;;;;4958941;28;21427;-85
2023/03/27 06:07:30;;;;;;;0.63;0.63;;;1.60;99.90;;;;;;5027385;28;20039;-86
2023/03/27 06:09:56;;;;;;;0.70;0.70;;;2.20;99.90;;;;;;4961982;28;20061;-85
2023/03/27 06:12:22;;;;;;;0.80;0.80;;;1.60;99.90;;;;;;4967470;28;20510;-85
2023/03/27 06:14:48;;;;;;;0.80;0.80;;;1.60;99.90;;;;;;4968151;28;20055;-85
2023/03/27 06:17:14;;;;;;;0.77;0.77;;;2.20;99.90;;;;;;4971230;28;20102;-84
2023/03/27 06:19:40;;;;;;;;;;;1.70;99.90;;;;;;4952916;28;20050;-85
2023/03/27 06:22:06;;;;;;;0.60;0.60;;;1.70;99.90;;;;;;4966773;28;20214;-87
2023/03/27 06:24:32;;;;;;;0.70;0.70;;;1.80;99.90;;;;;;4970815;28;20042;-87
2023/03/27 06:26:57;;;;;;;;;;;1.90;99.90;;;;;;4964715;28;20504;-85
2023/03/27 06:29:27;;;;;;;0.70;0.70;;;2.00;99.90;;;;;;4963060;28;19937;-85
2023/03/27 06:31:56;;;;;;;0.60;0.60;;;2.20;99.90;;;;;;4968650;28;20043;-85
2023/03/27 06:34:22;;;;;;;0.70;0.70;;;2.10;99.90;;;;;;4947129;28;20038;-86
2023/03/27 06:36:48;;;;;;;0.60;0.60;;;2.30;99.90;;;;;;4964786;28;20498;-85
2023/03/27 06:39:14;;;;;;;;;;;2.50;99.90;;;;;;5035174;28;20430;-84
2023/03/27 06:41:40;;;;;;;0.68;0.68;;;2.60;99.90;;;;;;4977878;28;20266;-84
2023/03/27 06:44:06;;;;;;;0.73;0.73;;;3.30;99.90;;;;;;4968973;28;20069;-84
2023/03/27 06:46:32;;;;;;;0.55;0.55;;;2.80;99.90;;;;;;4964586;28;20054;-85
2023/03/27 06:48:58;;;;;;;0.68;0.68;;;2.90;99.90;;;;;;4969866;28;20046;-82
2023/03/27 06:51:25;;;;;;;0.73;0.73;;;3.00;99.90;;;;;;4961567;28;20046;-82
2023/03/27 06:53:53;;;;;;;0.60;0.60;;;3.20;99.90;;;;;;4962340;28;20055;-81
2023/03/27 06:56:18;;;;;;;0.85;0.85;;;3.50;99.90;;;;;;4962057;28;20508;-82
2023/03/27 06:58:44;;;;;;;0.70;0.70;;;4.30;99.90;;;;;;4935355;28;20082;-81
2023/03/27 07:01:11;;;;;;;0.52;0.52;;;4.00;99.90;;;;;;4959458;28;20499;-81
2023/03/27 07:03:37;;;;;;;0.60;0.60;;;4.20;99.90;;;;;;4960407;28;20600;-82
2023/03/27 07:06:04;;;;;;;3.85;0.80;;;4.80;99.90;;;;;;4961753;28;20158;-81
2023/03/27 07:08:30;;;;;;;0.60;0.60;;;4.50;99.90;;;;;;4951660;28;20035;-82
2023/03/27 07:10:55;;;;;;;0.50;0.50;;;4.60;99.90;;;;;;4962707;28;20129;-82
2023/03/27 07:13:21;;;;;;;1.33;1.30;;;4.60;99.90;;;;;;4969853;28;20053;-84
2023/03/27 07:15:47;;;;;;;0.60;0.60;;;4.50;99.90;;;;;;4963658;28;20631;-81
2023/03/27 07:18:14;;;;;;;0.60;0.60;;;4.50;99.90;;;;;;4969263;28;20046;-80
2023/03/27 07:20:40;;;;;;;0.70;0.70;;;4.90;99.90;;;;;;4955651;28;20112;-81
2023/03/27 07:23:10;;;;;;;0.95;0.95;;;4.60;99.90;;;;;;4943161;28;20058;-81
2023/03/27 07:25:36;;;;;;;0.60;0.60;;;3.90;99.90;;;;;;4946651;28;20059;-82
2023/03/27 07:28:04;;;;;;;0.60;0.60;;;3.70;99.90;;;;;;4959889;28;20495;-81
2023/03/27 07:30:30;;;;;;;0.70;0.70;;;3.70;99.90;;;;;;4955260;28;20039;-82
2023/03/27 07:32:57;;;;;;;0.60;0.60;;;3.90;99.90;;;;;;4960583;28;20422;-81
2023/03/27 07:35:24;;;;;;;1.52;1.42;;;4.10;99.90;;;;;;4957666;28;20035;-81
2023/03/27 07:37:52;;;;;;;0.60;0.60;;;4.20;99.90;;;;;;4962295;28;20077;-82
2023/03/27 07:40:21;;;;;;;0.68;0.68;;;4.50;99.90;;;;;;4946965;28;20058;-82
2023/03/27 07:42:48;;;;;;;0.60;0.60;;;4.50;99.90;;;;;;4945614;28;20229;-81
2023/03/27 07:45:17;;;;;;;0.70;0.70;;;4.30;99.90;;;;;;4960027;28;20117;-81
2023/03/27 07:47:44;;;;;;;0.50;0.50;;;4.10;99.90;;;;;;4960835;28;20047;-82
2023/03/27 07:50:13;;;;;;;0.52;0.52;;;3.80;99.90;;;;;;4944103;28;20031;-82
2023/03/27 07:52:42;;;;;;;0.60;0.60;;;3.70;99.90;;;;;;4964373;28;20051;-81
2023/03/27 07:55:10;;;;;;;0.60;0.60;;;3.60;99.90;;;;;;4958318;28;20116;-81
2023/03/27 07:57:48;;;;;;;0.60;0.60;;;3.70;99.90;;;;;;4947601;28;20073;-81
2023/03/27 08:00:17;;;;;;;0.57;0.57;;;3.60;99.90;;;;;;4962676;28;20388;-81
2023/03/27 08:02:45;;;;;;;3.13;1.30;;;3.60;99.90;;;;;;4959850;28;20048;-82
2023/03/27 08:05:11;;;;;;;0.60;0.60;;;3.60;99.90;;;;;;4942863;28;20034;-82
2023/03/27 08:07:39;;;;;;;0.50;0.50;;;3.50;99.90;;;;;;4959722;28;20127;-81
2023/03/27 08:10:06;;;;;;;0.60;0.60;;;3.50;99.90;;;;;;4965692;28;20047;-81
2023/03/27 08:12:34;;;;;;;0.70;0.70;;;3.60;99.90;;;;;;4962752;28;20478;-81
2023/03/27 08:15:01;;;;;;;0.60;0.60;;;4.00;99.90;;;;;;4960016;28;20449;-82
2023/03/27 08:17:28;;;;;;;0.60;0.60;;;4.40;99.90;;;;;;4947785;28;20043;-81
2023/03/27 08:19:54;;;;;;;0.60;0.60;;;4.00;99.90;;;;;;4949871;28;20042;-81
2023/03/27 08:22:21;;;;;;;0.60;0.60;;;4.10;99.90;;;;;;4942774;28;20046;-81
2023/03/27 08:24:48;;;;;;;0.50;0.50;;;4.30;99.90;;;;;;4962126;28;20129;-81
2023/03/27 08:27:14;;;;;;;0.60;0.60;;;4.30;99.90;;;;;;4959587;28;20148;-81
2023/03/27 08:29:41;;;;;;;0.65;0.65;;;4.50;99.90;;;;;;4964615;28;20121;-81
2023/03/27 08:32:09;;;;;;;0.50;0.50;;;4.70;99.90;;;;;;4943407;28;20042;-81
2023/03/27 08:34:34;;;;;;;0.57;0.57;;;4.80;99.90;;;;;;4961571;28;20500;-80
2023/03/27 08:37:00;;;;;;;0.70;0.70;;;5.70;99.90;;;;;;4944820;28;20043;-81
2023/03/27 08:39:29;;;;;;;0.60;0.60;;;5.20;99.90;;;;;;4964770;28;20496;-82
2023/03/27 08:42:01;;;;;;;0.55;0.55;;;5.50;99.90;;;;;;4975150;28;20127;-81
2023/03/27 08:44:29;;;;;;;0.60;0.60;;;5.50;99.90;;;;;;4967239;28;20050;-81
2023/03/27 08:47:01;;;;;;;0.57;0.57;;;5.50;99.90;;;;;;4962256;28;20039;-81
2023/03/27 08:49:32;;;;;;;0.60;0.60;;;5.20;99.90;;;;;;4969137;28;20047;-81
2023/03/27 08:52:01;;;;;;;1.15;1.15;;;5.20;99.90;;;;;;4949119;28;20408;-82
2023/03/27 08:54:35;;;;;;;0.70;0.70;;;5.30;99.90;;;;;;4971356;28;20043;-81
2023/03/27 08:57:12;;;;;;;0.50;0.50;;;5.40;99.90;;;;;;4964654;28;20373;-81
2023/03/27 08:59:40;;;;;;;0.60;0.60;;;5.40;99.90;;;;;;4966154;28;20493;-81
2023/03/27 09:02:17;;;;;;;0.50;0.50;;;5.30;99.90;;;;;;4939747;28;20085;-82
2023/03/27 09:05:02;;;;;;;0.57;0.57;;;5.30;99.90;;;;;;4968630;28;20043;-82
2023/03/27 09:07:43;;;;;;;0.60;0.60;;;5.40;99.90;;;;;;4955420;28;20039;-81
2023/03/27 09:10:29;;;;;;;0.60;0.60;;;5.50;99.90;;;;;;4962346;28;20069;-82
2023/03/27 09:13:27;;;;;;;0.40;0.40;;;5.70;99.90;;;;;;4968848;28;20043;-81
2023/03/27 09:16:20;;;;;;;0.63;0.63;;;5.90;99.90;;;;;;4973863;28;20046;-81
2023/03/27 09:19:23;;;;;;;0.40;0.40;;;6.10;99.90;;;;;;4960337;28;20050;-82
2023/03/27 09:21:56;;;;;;;0.73;0.73;;;6.20;99.90;;;;;;4941716;28;20100;-82
2023/03/27 09:24:31;;;;;;;0.52;0.52;;;6.20;99.90;;;;;;4946181;28;20035;-82
2023/03/27 09:27:10;;;;;;;0.50;0.50;;;6.30;99.90;;;;;;4960481;28;20065;-82
2023/03/27 09:29:39;;;;;;;0.50;0.50;;;6.30;99.90;;;;;;4985587;28;20051;-81
2023/03/27 09:32:12;;;;;;;0.60;0.60;;;6.30;99.90;;;;;;4961517;28;20039;-82
2023/03/27 09:34:38;;;;;;;0.52;0.52;;;6.10;99.90;;;;;;4950360;28;20034;-83
2023/03/27 09:37:13;;;;;;;0.57;0.57;;;6.20;99.90;;;;;;4958413;28;20541;-82
2023/03/27 09:39:44;;;;;;;0.90;0.90;;;6.40;99.90;;;;;;4965202;28;20460;-82
2023/03/27 09:42:19;;;;;;;0.77;0.77;;;6.60;99.90;;;;;;4973058;28;20040;-82
2023/03/27 09:44:49;;;;;;;0.50;0.50;;;6.50;99.90;;;;;;4964557;28;20157;-82
2023/03/27 09:47:19;;;;;;;0.57;0.57;;;6.60;99.90;;;;;;4963888;28;20046;-82
2023/03/27 09:49:51;;;;;;;0.45;0.45;;;6.60;99.90;;;;;;4948519;28;20066;-82
2023/03/27 09:52:39;;;;;;;0.75;0.75;;;6.50;99.90;;;;;;4961771;28;20051;-82
2023/03/27 09:55:23;;;;;;;0.47;0.47;;;6.50;99.90;;;;;;4968142;28;20053;-82
2023/03/27 09:57:57;;;;;;;0.43;0.43;;;6.50;99.90;;;;;;4951689;28;20115;-82
2023/03/27 10:00:33;;;;;;;0.40;0.40;;;6.40;99.90;;;;;;4958921;28;20124;-82
2023/03/27 10:03:06;;;;;;;0.47;0.47;;;6.40;99.90;;;;;;4967678;28;20052;-83
2023/03/27 10:05:33;;;;;;;0.60;0.60;;;6.60;99.90;;;;;;4944538;28;20374;-82
2023/03/27 10:08:00;;;;;;;0.60;0.60;;;6.60;99.90;;;;;;4949261;28;20399;-81
2023/03/27 10:10:31;;;;;;;0.60;0.60;;;6.70;99.90;;;;;;4949295;28;20055;-82
2023/03/27 10:12:58;;;;;;;0.57;0.57;;;6.80;99.90;;;;;;4947184;28;20047;-81
2023/03/27 10:15:38;;;;;;;0.63;0.63;;;6.60;99.90;;;;;;4964250;28;20043;-82
2023/03/27 10:18:28;;;;;;;0.50;0.50;;;6.40;99.90;;;;;;4963506;28;20065;-81
2023/03/27 10:20:58;;;;;;;0.60;0.60;;;6.30;99.90;;;;;;4946072;28;20499;-81
2023/03/27 10:23:48;;;;;;;0.50;0.50;;;6.50;99.90;;;;;;4961286;28;20566;-81
2023/03/27 10:26:24;;;;;;;1.35;1.27;;;6.80;99.90;;;;;;4944533;28;20786;-82
2023/03/27 10:28:51;;;;;;;0.73;0.57;;;6.80;99.90;;;;;;4973488;28;20149;-82
2023/03/27 10:31:24;;;;;;;0.60;0.60;;;6.90;99.90;;;;;;4961845;28;20322;-82
2023/03/27 10:33:50;;;;;;;0.52;0.52;;;6.90;99.90;;;;;;4968716;28;20062;-85
2023/03/27 10:36:17;;;;;;;0.43;0.43;;;7.00;99.90;;;;;;4953699;28;20034;-84
2023/03/27 10:38:59;;;;;;;0.40;0.40;;;7.10;99.90;;;;;;4938285;28;20070;-85
2023/03/27 10:41:27;;;;;;;0.40;0.40;;;7.20;99.90;;;;;;4982074;28;20050;-86
2023/03/27 10:43:53;;;;;;;0.50;0.50;;;7.30;99.90;;;;;;4963520;28;20046;-84
2023/03/27 10:46:22;;;;;;;0.50;0.50;;;7.30;99.90;;;;;;4959115;28;20047;-85
2023/03/27 10:49:09;;;;;;;0.45;0.45;;;7.10;99.90;;;;;;4958592;28;20123;-84
2023/03/27 10:51:44;;;;;;;0.40;0.40;;;6.90;99.90;;;;;;4963167;28;20134;-86
2023/03/27 10:54:45;;;;;;;0.45;0.45;;;7.00;99.90;;;;;;4962646;28;20443;-85
2023/03/27 10:57:31;;;;;;;0.50;0.50;;;7.20;99.90;;;;;;4948489;28;20121;-86
2023/03/27 11:00:09;;;;;;;0.40;0.40;;;7.40;99.90;;;;;;4992226;28;20074;-85
2023/03/27 11:03:07;;;;;;;0.50;0.50;;;7.50;99.90;;;;;;4960492;28;20507;-85
2023/03/27 11:05:41;;;;;;;;;;;7.30;99.90;;;;;;4969152;28;20046;-85
2023/03/27 11:08:30;;;;;;;0.55;0.55;;;7.30;99.90;;;;;;4994106;28;19925;-85
2023/03/27 11:11:03;;;;;;;0.60;0.60;;;7.40;99.90;;;;;;4967107;28;20112;-86
2023/03/27 11:13:37;;;;;;;0.55;0.55;;;7.70;99.90;;;;;;4966084;28;20092;-84
2023/03/27 11:16:37;;;;;;;0.50;0.50;;;8.00;99.90;;;;;;4966013;28;20065;-84
2023/03/27 11:19:35;;;;;;;0.40;0.40;;;8.30;99.90;;;;;;4962543;28;20046;-84
2023/03/27 11:22:15;;;;;;;0.50;0.50;;;8.20;99.90;;;;;;4940883;28;20530;-86
2023/03/27 11:24:50;;;;;;;0.68;0.68;;;7.40;99.90;;;;;;4975724;28;20562;-86
2023/03/27 11:27:22;;;;;;;0.50;0.50;;;6.30;99.90;;;;;;5031448;28;20055;-85
2023/03/27 11:30:04;;;;;;;0.65;0.65;;;5.40;99.90;;;;;;4941645;28;20054;-85
2023/03/27 11:32:55;;;;;;;0.60;0.60;;;4.80;99.90;;;;;;4942976;28;20046;-84
2023/03/27 11:35:27;;;;;;;0.60;0.60;;;4.50;99.90;;;;;;4965140;28;20472;-85
2023/03/27 11:38:06;;;;;;;0.63;0.63;;;4.40;99.90;;;;;;4980809;28;20057;-83
2023/03/27 11:40:42;;;;;;;0.70;0.70;;;4.50;99.90;;;;;;4965269;28;20109;-84
2023/03/27 11:43:13;;;;;;;1.45;1.35;;;4.70;99.90;;;;;;4972296;28;20046;-83
2023/03/27 11:46:12;;;;;;;0.45;0.45;;;5.90;99.90;;;;;;4963926;28;20058;-85
2023/03/27 11:48:46;;;;;;;0.50;0.50;;;5.60;99.90;;;;;;4947071;28;20086;-84
2023/03/27 11:51:27;;;;;;;0.60;0.60;;;6.30;99.90;;;;;;4962719;28;20433;-86
2023/03/27 11:53:57;;;;;;;0.50;0.50;;;6.80;99.90;;;;;;4963063;28;20124;-86
2023/03/27 11:56:47;;;;;;;0.63;0.63;;;7.00;99.90;;;;;;4950043;28;20039;-86
2023/03/27 11:59:15;;;;;;;3.53;1.48;;;7.00;99.90;;;;;;4965897;28;20051;-85
2023/03/27 12:02:07;;;;;;;0.50;0.50;;;6.80;99.90;;;;;;4967460;28;20050;-85
2023/03/27 12:04:51;;;;;;;1.00;1.00;;;6.90;99.90;;;;;;4993479;28;20923;-86
2023/03/27 12:07:45;;;;;;;0.80;0.80;;;7.00;99.90;;;;;;4985310;28;20053;-84
2023/03/27 12:10:27;;;;;;;0.75;0.75;;;7.00;99.90;;;;;;4976104;28;20050;-85
2023/03/27 12:13:17;;;;;;;0.40;0.40;;;7.20;99.90;;;;;;4982860;28;20078;-84
2023/03/27 12:16:16;;;;;;;0.40;0.40;;;7.40;99.90;;;;;;4967783;28;20396;-85
2023/03/27 12:18:53;;;;;;;0.47;0.47;;;7.60;99.90;;;;;;4964798;28;20042;-83
2023/03/27 12:21:57;;;;;;;0.68;0.68;;;7.50;99.90;;;;;;4951506;28;20112;-85
2023/03/27 12:25:11;;;;;;;0.60;0.60;;;7.10;99.90;;;;;;4965429;28;20051;-85
2023/03/27 12:28:21;;;;;;;0.60;0.60;;;6.80;99.90;;;;;;4967115;28;20098;-85
2023/03/27 12:30:57;;;;;;;0.60;0.60;;;6.90;99.90;;;;;;4986777;28;20126;-85
2023/03/27 12:33:40;;;;;;;;;;;7.00;99.90;;;;;;4957051;28;20185;-83
2023/03/27 12:36:12;;;;;;;0.50;0.50;;;6.90;99.90;;;;;;4978365;28;20323;-85
2023/03/27 12:38:40;;;;;;;0.35;0.35;;;6.80;99.90;;;;;;4972531;28;20050;-87
2023/03/27 12:41:20;;;;;;;0.40;0.40;;;6.90;99.90;;;;;;4955724;28;20124;-85
2023/03/27 12:43:47;;;;;;;0.50;0.50;;;7.00;99.90;;;;;;4981943;28;20086;-86
2023/03/27 12:46:27;;;;;;;0.40;0.40;;;7.10;99.90;;;;;;4975780;28;20086;-85
2023/03/27 12:48:55;;;;;;;0.50;0.50;;;7.30;99.90;;;;;;4972566;28;20038;-84
2023/03/27 12:51:50;;;;;;;0.57;0.57;;;7.30;99.90;;;;;;4951485;28;20127;-84
2023/03/27 12:54:26;;;;;;;0.47;0.47;;;7.10;99.90;;;;;;4951171;28;20077;-86
2023/03/27 12:57:19;;;;;;;1.38;1.38;;;7.10;99.90;;;;;;4967338;28;20097;-87
2023/03/27 12:59:47;;;;;;;0.60;0.60;;;7.20;99.90;;;;;;4968136;28;20092;-84
2023/03/27 13:02:29;;;;;;;0.40;0.40;;;7.20;99.90;;;;;;4968427;28;20035;-88
2023/03/27 13:05:18;;;;;;;0.50;0.50;;;7.30;99.90;;;;;;4949907;28;20054;-84
2023/03/27 13:08:11;;;;;;;0.60;0.60;;;7.20;99.90;;;;;;4968458;28;20057;-86
2023/03/27 13:10:58;;;;;;;0.50;0.50;;;7.10;99.90;;;;;;4963900;28;20051;-85
2023/03/27 13:13:43;;;;;;;0.60;0.60;;;7.20;99.90;;;;;;4964977;28;20374;-86
2023/03/27 13:16:45;;;;;;;0.60;0.60;;;7.20;99.90;;;;;;4962918;28;20086;-84
2023/03/27 13:19:26;;;;;;;0.30;0.30;;;7.50;99.90;;;;;;4968149;28;20133;-85
2023/03/27 13:22:13;;;;;;;0.50;0.50;;;7.80;99.90;;;;;;4963494;28;20089;-84
2023/03/27 13:25:16;;;;;;;0.50;0.50;;;7.90;99.90;;;;;;4945072;28;20066;-86
2023/03/27 13:27:45;;;;;;;0.50;0.50;;;7.50;99.90;;;;;;4947468;28;20063;-84
2023/03/27 13:30:47;;;;;;;0.82;0.82;;;7.00;99.90;;;;;;4953881;28;20050;-85
2023/03/27 13:33:36;;;;;;;0.60;0.60;;;6.40;99.90;;;;;;4969107;28;20042;-85
2023/03/27 13:36:18;;;;;;;0.50;0.50;;;6.10;99.90;;;;;;4947328;28;20392;-85